Aeroporto :
LOGIN :

Iscrizione | Disclaimer

   EN    FR    IT 

 










Sommario :    VFR   VFR Marginale   IFR   IFR Intensivo   IFR Molto Intensivo
Visibilità : 
Base nubi : 
>= 8 km
>= 3000ft
5 / 8 km
1000 / 3000 ft
1500m / 5 km
500 / 1000 ft
800 / 1500m
200 / 500 ft
< 800m
< 200 ft
Simboli :   Temporali  Nebbia  Neve Forte  Precipitazioni Forti  Vento > 20 kt
SIGMETs :   Varie  Temporali  Ghiacco  Turbolenza  Onda orograficha  Ceneri Vulcaniche






- Altitudine del aeroporto : 53 ft
- Codice IATA : HAM


EDDH - Hamburg

ULTIMO METAR :
  • 280850Z 31009KT 280V340 9999 FEW035 15/06 Q1033 NOSIG

METARs OBSOLETI :
  • 280820Z 32008KT 280V360 CAVOK 15/07 Q1033 NOSIG
  • 280750Z 33008KT 290V010 CAVOK 14/07 Q1033 NOSIG
  • 280720Z 32008KT 290V360 CAVOK 13/06 Q1033 NOSIG
  • 280650Z 31008KT 270V340 CAVOK 12/07 Q1033 NOSIG
  • 280620Z 34008KT CAVOK 11/07 Q1033 NOSIG

TAF TAF EDDH
Valido dal 28 a 06 ore il 29 a 12 ore UTC


280500Z 2806/2912 32004KT 9999 FEW045
PROB30
TEMPO 2806/2807 BKN010
BECMG 2806/2807 33009KT
BECMG 2817/2819 35004KT
PROB30
TEMPO 2902/2905 2500 BCFG



MetMap, La meteo Aeronautica in un colpo d'occhio ! - Copyright ORBIFLY Dicembre 2007 - Disclaimer

ORBIFLY MET'MAP TEAM :

Programmazione e sviluppo : Alexandra Zaïnal
Concezione : Baudouin d'Aumeries
Aiuto per la programmazione : Marc-Olivier Méhu
Supporto tecnico e logistico : Manuel Goepfert
Aiuto per la traduzione : Arnaldo La Scala

Contatto : metmap@orbifly.com




FONTI E CREDITI :

   NOAA